Time;durP1;ratioP1;P1;durP2;ratioP2;P2;SDS_P1;SDS_P2;PMS_P1;PMS_P2;Temp;Humidity;BMP_temperature;BMP_pressure;BME280_temperature;BME280_humidity;BME280_pressure;Samples;Min_cycle;Max_cycle;Signal;HPM_P1;HPM_P2
2022/03/13 00:02:17;;;;;;;0.30;0.30;;;7.70;99.90;;;;;;5020650;28;20079;-90
2022/03/13 00:04:48;;;;;;;0.43;0.43;;;7.70;99.90;;;;;;5021160;28;20042;-89
2022/03/13 00:07:19;;;;;;;0.55;0.55;;;7.60;99.90;;;;;;5020877;28;20037;-90
2022/03/13 00:09:49;;;;;;;1.38;1.00;;;7.70;99.90;;;;;;5047953;28;20068;-90
2022/03/13 00:12:24;;;;;;;0.98;0.95;;;7.70;99.90;;;;;;5070174;28;20186;-91
2022/03/13 00:14:51;;;;;;;1.00;0.82;;;8.30;99.90;;;;;;5018523;28;20061;-90
2022/03/13 00:17:17;;;;;;;0.30;0.30;;;7.60;99.90;;;;;;5047035;28;20495;-91
2022/03/13 00:19:44;;;;;;;0.80;0.80;;;7.60;99.90;;;;;;5004036;28;20483;-91
2022/03/13 00:22:12;;;;;;;0.65;0.65;;;7.60;99.90;;;;;;5020116;28;20056;-91
2022/03/13 00:24:38;;;;;;;1.05;0.95;;;7.60;99.90;;;;;;5022190;28;20037;-90
2022/03/13 00:27:07;;;;;;;3.17;2.90;;;7.60;99.90;;;;;;5027528;28;20026;-90
2022/03/13 00:29:33;;;;;;;0.30;0.30;;;7.60;99.90;;;;;;5022198;28;20037;-90
2022/03/13 00:31:58;;;;;;;1.25;0.88;;;7.50;99.90;;;;;;5002310;28;20033;-90
2022/03/13 00:34:25;;;;;;;0.95;0.88;;;7.80;99.90;;;;;;5064702;28;20034;-90
2022/03/13 00:36:51;;;;;;;1.08;0.75;;;7.50;99.90;;;;;;5020096;28;20052;-91
2022/03/13 00:39:17;;;;;;;0.95;0.93;;;7.50;99.90;;;;;;5023586;28;20050;-91
2022/03/13 00:41:44;;;;;;;4.45;2.72;;;7.50;99.90;;;;;;5019100;28;20041;-91
2022/03/13 00:44:10;;;;;;;0.65;0.60;;;7.50;99.90;;;;;;5020506;28;20073;-90
2022/03/13 00:46:46;;;;;;;2.72;1.55;;;7.80;99.90;;;;;;5020978;28;20072;-91
2022/03/13 00:49:12;;;;;;;0.98;0.93;;;8.20;99.90;;;;;;5056636;28;20049;-89
2022/03/13 00:51:38;;;;;;;0.63;0.63;;;7.80;99.90;;;;;;5019244;28;20072;-90
2022/03/13 00:54:16;;;;;;;1.20;0.80;;;7.40;99.90;;;;;;5032579;28;20040;-90
2022/03/13 00:56:42;;;;;;;1.00;0.77;;;7.50;99.90;;;;;;5047971;28;20127;-90
2022/03/13 00:59:08;;;;;;;0.40;0.40;;;7.60;99.90;;;;;;5052684;28;20041;-90
2022/03/13 01:01:42;;;;;;;1.67;1.58;;;7.50;99.90;;;;;;5020780;28;20068;-91
2022/03/13 01:04:08;;;;;;;1.67;1.23;;;7.80;99.90;;;;;;5030319;28;20069;-90
2022/03/13 01:06:34;;;;;;;1.50;1.38;;;7.40;99.90;;;;;;5014943;28;20049;-91
2022/03/13 01:09:00;;;;;;;0.77;0.75;;;7.60;99.90;;;;;;5056755;28;20065;-90
2022/03/13 01:11:26;;;;;;;0.88;0.88;;;8.00;99.90;;;;;;5027150;28;20501;-90
2022/03/13 01:13:56;;;;;;;2.40;0.90;;;7.50;99.90;;;;;;5033524;28;20115;-90
2022/03/13 01:16:24;;;;;;;1.10;0.95;;;7.50;99.90;;;;;;5026408;28;20041;-90
2022/03/13 01:18:53;;;;;;;0.75;0.70;;;8.20;99.90;;;;;;5010529;28;20049;-90
2022/03/13 01:21:22;;;;;;;2.97;2.65;;;8.00;99.90;;;;;;5010264;28;20052;-90
2022/03/13 01:24:00;;;;;;;3.92;1.10;;;7.60;99.90;;;;;;5010690;28;20052;-90
2022/03/13 01:26:26;;;;;;;2.17;1.98;;;7.70;99.90;;;;;;4990225;28;20546;-90
2022/03/13 01:28:56;;;;;;;0.73;0.60;;;7.70;99.90;;;;;;5029460;28;20069;-90
2022/03/13 01:31:29;;;;;;;1.67;1.20;;;7.90;99.90;;;;;;5009771;28;20045;-90
2022/03/13 01:33:57;;;;;;;2.38;1.83;;;8.40;99.90;;;;;;5010059;28;20044;-90
2022/03/13 01:36:24;;;;;;;3.70;2.70;;;7.70;99.90;;;;;;5009822;28;20073;-90
2022/03/13 01:38:56;;;;;;;0.70;0.70;;;7.70;99.90;;;;;;5009477;28;20052;-88
2022/03/13 01:41:23;;;;;;;0.80;0.77;;;7.70;99.90;;;;;;4993359;28;20045;-89
2022/03/13 01:43:49;;;;;;;1.65;1.45;;;7.80;99.90;;;;;;5009996;28;20063;-88
2022/03/13 01:46:15;;;;;;;2.75;1.75;;;7.70;99.90;;;;;;5009296;28;20565;-89
2022/03/13 01:49:01;;;;;;;1.05;0.85;;;7.70;99.90;;;;;;5009835;28;20077;-89
2022/03/13 01:51:27;;;;;;;1.83;1.35;;;7.70;99.90;;;;;;5009584;28;20056;-89
2022/03/13 01:53:56;;;;;;;0.52;0.52;;;7.70;99.90;;;;;;5009940;28;20445;-89
2022/03/13 01:56:22;;;;;;;1.00;0.90;;;7.70;99.90;;;;;;5059172;28;20165;-89
2022/03/13 01:58:51;;;;;;;2.05;1.17;;;7.70;99.90;;;;;;5009494;28;20068;-89
2022/03/13 02:01:18;;;;;;;2.05;1.38;;;7.70;99.90;;;;;;5009146;28;20037;-90
2022/03/13 02:03:44;;;;;;;0.98;0.93;;;7.70;99.90;;;;;;5009089;28;20052;-89
2022/03/13 02:06:10;;;;;;;2.10;1.15;;;8.50;99.90;;;;;;5008961;28;20063;-89
2022/03/13 02:08:37;;;;;;;1.67;1.13;;;7.70;99.90;;;;;;5009487;28;20044;-89
2022/03/13 02:11:03;;;;;;;1.05;0.95;;;7.80;99.90;;;;;;4998751;28;20033;-89
2022/03/13 02:13:29;;;;;;;1.23;1.10;;;7.70;99.90;;;;;;5009079;28;20065;-90
2022/03/13 02:15:55;;;;;;;1.48;1.02;;;7.70;99.90;;;;;;5009330;28;20042;-90
2022/03/13 02:18:21;;;;;;;3.83;1.58;;;7.70;99.90;;;;;;5009361;28;20553;-89
2022/03/13 02:20:46;;;;;;;4.45;2.15;;;7.70;99.90;;;;;;5008805;28;20052;-89
2022/03/13 02:23:22;;;;;;;3.25;1.75;;;7.70;99.90;;;;;;5008288;28;20048;-89
2022/03/13 02:25:58;;;;;;;0.30;0.30;;;7.70;99.90;;;;;;5008235;28;20041;-89
2022/03/13 02:28:31;;;;;;;1.73;0.52;;;7.70;99.90;;;;;;5008679;28;20048;-90
2022/03/13 02:31:06;;;;;;;0.35;0.35;;;8.40;99.90;;;;;;5024945;28;20060;-89
2022/03/13 02:33:33;;;;;;;;;;;7.70;99.90;;;;;;5025560;28;20041;-90
2022/03/13 02:36:04;;;;;;;1.65;1.17;;;7.70;99.90;;;;;;5008637;28;19917;-89
2022/03/13 02:38:30;;;;;;;2.92;1.58;;;7.70;99.90;;;;;;5008728;28;20422;-90
2022/03/13 02:40:58;;;;;;;0.47;0.47;;;7.60;99.90;;;;;;5008762;28;20034;-89
2022/03/13 02:43:25;;;;;;;1.65;1.42;;;8.10;99.90;;;;;;5008781;28;20037;-89
2022/03/13 02:45:54;;;;;;;0.85;0.85;;;7.60;99.90;;;;;;5007954;28;20072;-89
2022/03/13 02:48:19;;;;;;;0.80;0.80;;;7.60;99.90;;;;;;5008449;28;20050;-89
2022/03/13 02:50:45;;;;;;;0.77;0.77;;;7.40;99.90;;;;;;5008817;28;20038;-89
2022/03/13 02:53:14;;;;;;;1.30;0.85;;;7.60;99.90;;;;;;5008609;28;20052;-90
2022/03/13 02:55:40;;;;;;;0.55;0.40;;;7.50;99.90;;;;;;5008451;28;20038;-90
2022/03/13 02:58:06;;;;;;;0.63;0.63;;;7.50;99.90;;;;;;5008488;28;20047;-89
2022/03/13 03:00:50;;;;;;;0.38;0.38;;;7.50;99.90;;;;;;5008486;28;20042;-90
2022/03/13 03:03:18;;;;;;;0.30;0.30;;;7.50;99.90;;;;;;5008781;28;20052;-90
2022/03/13 03:05:44;;;;;;;1.23;1.15;;;8.00;99.90;;;;;;5008765;28;20037;-89
2022/03/13 03:08:10;;;;;;;1.83;1.73;;;7.50;99.90;;;;;;5008086;28;20042;-90
2022/03/13 03:10:37;;;;;;;0.35;0.35;;;7.80;99.90;;;;;;5008382;28;20068;-90
2022/03/13 03:13:03;;;;;;;1.08;0.90;;;7.50;99.90;;;;;;5040769;28;20037;-90
2022/03/13 03:15:28;;;;;;;0.63;0.60;;;7.40;99.90;;;;;;5008191;28;20072;-90
2022/03/13 03:17:54;;;;;;;0.32;0.32;;;8.00;99.90;;;;;;5008835;28;20041;-90
2022/03/13 03:20:21;;;;;;;0.43;0.43;;;7.40;99.90;;;;;;5008855;28;20099;-90
2022/03/13 03:22:49;;;;;;;0.90;0.70;;;7.40;99.90;;;;;;5008394;28;20087;-90
2022/03/13 03:25:22;;;;;;;0.30;0.30;;;7.30;99.90;;;;;;5004752;28;20101;-90
2022/03/13 03:27:48;;;;;;;0.38;0.38;;;7.30;99.90;;;;;;5005234;28;20042;-90
2022/03/13 03:30:14;;;;;;;0.40;0.40;;;7.30;99.90;;;;;;5005845;28;20042;-90
2022/03/13 03:32:39;;;;;;;0.30;0.30;;;7.30;99.90;;;;;;5005121;28;20042;-90
2022/03/13 03:35:05;;;;;;;0.30;0.30;;;7.40;99.90;;;;;;5004784;28;20030;-90
2022/03/13 03:37:34;;;;;;;0.60;0.60;;;7.30;99.90;;;;;;5037824;28;20049;-90
2022/03/13 03:40:00;;;;;;;0.82;0.57;;;7.30;99.90;;;;;;5004955;28;20084;-90
2022/03/13 03:42:26;;;;;;;1.15;0.88;;;7.30;99.90;;;;;;5004900;28;20041;-90
2022/03/13 03:44:51;;;;;;;0.95;0.63;;;7.20;99.90;;;;;;4994372;28;20042;-90
2022/03/13 03:47:17;;;;;;;2.92;2.67;;;7.40;99.90;;;;;;4989055;28;20045;-90
2022/03/13 03:49:42;;;;;;;3.83;1.85;;;8.00;99.90;;;;;;4988076;28;20038;-90
2022/03/13 03:52:08;;;;;;;1.88;1.77;;;7.10;99.90;;;;;;4988722;28;20076;-91
2022/03/13 03:54:34;;;;;;;0.40;0.40;;;7.00;99.90;;;;;;4988764;28;20030;-90
2022/03/13 03:56:59;;;;;;;1.10;1.05;;;7.00;99.90;;;;;;4988435;28;20121;-91
2022/03/13 03:59:25;;;;;;;0.65;0.65;;;7.10;99.90;;;;;;4993445;28;20037;-91
2022/03/13 04:01:51;;;;;;;0.47;0.47;;;6.90;99.90;;;;;;4991830;28;20099;-91
2022/03/13 04:04:18;;;;;;;0.28;0.28;;;6.10;99.90;;;;;;5008565;28;20047;-90
2022/03/13 04:06:43;;;;;;;0.40;0.40;;;6.70;99.90;;;;;;5007410;28;20172;-90
2022/03/13 04:09:11;;;;;;;0.73;0.73;;;6.70;99.90;;;;;;5008129;28;20045;-90
2022/03/13 04:11:37;;;;;;;0.75;0.60;;;6.70;99.90;;;;;;5007585;28;20049;-90
2022/03/13 04:14:04;;;;;;;1.13;1.05;;;6.50;99.90;;;;;;5006792;28;20037;-91
2022/03/13 04:16:32;;;;;;;1.10;0.73;;;7.20;99.90;;;;;;5023200;28;20469;-90
2022/03/13 04:18:58;;;;;;;1.00;0.95;;;6.70;99.90;;;;;;5006842;28;20139;-91
2022/03/13 04:21:24;;;;;;;0.65;0.65;;;6.60;99.90;;;;;;5006834;28;20042;-90
2022/03/13 04:23:50;;;;;;;2.10;1.50;;;7.30;99.90;;;;;;5005807;28;20034;-90
2022/03/13 04:26:16;;;;;;;1.65;1.20;;;6.70;99.90;;;;;;5006289;28;20041;-91
2022/03/13 04:28:42;;;;;;;0.60;0.60;;;6.50;99.90;;;;;;5005829;28;20099;-90
2022/03/13 04:31:13;;;;;;;2.40;1.80;;;6.70;99.90;;;;;;5007065;28;20045;-90
2022/03/13 04:33:40;;;;;;;0.45;0.40;;;6.70;99.90;;;;;;5006243;28;20071;-90
2022/03/13 04:36:13;;;;;;;1.50;0.68;;;6.70;99.90;;;;;;5005752;28;20044;-91
2022/03/13 04:38:41;;;;;;;1.35;0.95;;;6.70;99.90;;;;;;5007250;28;20051;-91
2022/03/13 04:41:07;;;;;;;0.95;0.73;;;6.70;99.90;;;;;;5023662;28;20077;-90
2022/03/13 04:43:33;;;;;;;1.52;1.17;;;7.00;99.90;;;;;;5006985;28;20041;-90
2022/03/13 04:45:59;;;;;;;0.52;0.52;;;6.60;99.90;;;;;;5023102;28;20048;-90
2022/03/13 04:48:25;;;;;;;0.40;0.40;;;6.60;99.90;;;;;;5006926;28;20042;-90
2022/03/13 04:50:50;;;;;;;1.27;0.95;;;7.30;99.90;;;;;;5023399;28;20077;-91
2022/03/13 04:53:16;;;;;;;0.52;0.52;;;6.70;99.90;;;;;;5007186;28;20053;-91
2022/03/13 04:55:42;;;;;;;0.60;0.60;;;6.60;99.90;;;;;;5039137;28;20041;-91
2022/03/13 04:58:09;;;;;;;0.40;0.40;;;6.60;99.90;;;;;;5007165;28;20049;-91
2022/03/13 05:00:37;;;;;;;0.50;0.50;;;6.50;99.90;;;;;;5006967;28;20048;-91
2022/03/13 05:03:03;;;;;;;0.30;0.30;;;6.50;99.90;;;;;;5020310;28;20037;-91
2022/03/13 05:05:29;;;;;;;2.33;1.15;;;6.50;99.90;;;;;;5026492;28;20041;-91
2022/03/13 05:07:54;;;;;;;0.30;0.30;;;6.40;99.90;;;;;;5017061;28;20072;-91
2022/03/13 05:10:20;;;;;;;0.80;0.80;;;6.70;99.90;;;;;;5007362;28;20037;-90
2022/03/13 05:12:47;;;;;;;1.85;1.40;;;6.40;99.90;;;;;;5039367;28;20049;-90
2022/03/13 05:15:13;;;;;;;0.40;0.40;;;6.40;99.90;;;;;;5006853;28;20077;-90
2022/03/13 05:17:39;;;;;;;4.43;0.93;;;6.50;99.90;;;;;;5022910;28;20034;-90
2022/03/13 05:20:05;;;;;;;1.33;1.23;;;6.40;99.90;;;;;;5006293;28;20040;-90
2022/03/13 05:22:31;;;;;;;0.30;0.30;;;6.40;99.90;;;;;;5006674;28;20071;-90
2022/03/13 05:24:57;;;;;;;0.30;0.30;;;6.40;99.90;;;;;;5006849;28;20483;-91
2022/03/13 05:27:23;;;;;;;0.40;0.40;;;6.40;99.90;;;;;;5006229;28;20073;-90
2022/03/13 05:29:48;;;;;;;0.57;0.57;;;6.30;99.90;;;;;;5006112;28;20041;-91
2022/03/13 05:32:14;;;;;;;2.20;1.80;;;6.40;99.90;;;;;;5006838;28;20068;-90
2022/03/13 05:34:40;;;;;;;0.80;0.75;;;6.40;99.90;;;;;;5008995;28;20060;-90
2022/03/13 05:37:07;;;;;;;0.30;0.30;;;6.30;99.90;;;;;;5010365;28;20057;-91
2022/03/13 05:39:33;;;;;;;0.30;0.30;;;7.20;99.90;;;;;;5011718;28;20053;-91
2022/03/13 05:42:00;;;;;;;0.50;0.50;;;6.30;99.90;;;;;;5011483;28;20045;-89
2022/03/13 05:44:26;;;;;;;0.57;0.57;;;6.30;99.90;;;;;;5011017;28;20044;-90
2022/03/13 05:46:51;;;;;;;1.75;1.38;;;6.30;99.90;;;;;;5010644;28;20553;-90
2022/03/13 05:49:17;;;;;;;1.05;0.95;;;6.30;99.90;;;;;;5010199;28;20045;-90
2022/03/13 05:51:43;;;;;;;0.35;0.35;;;6.20;99.90;;;;;;5026985;28;20124;-89
2022/03/13 05:54:09;;;;;;;1.63;1.52;;;6.30;99.90;;;;;;5009428;28;20042;-90
2022/03/13 05:56:36;;;;;;;1.05;0.68;;;6.30;99.90;;;;;;5010074;28;20402;-90
2022/03/13 05:59:01;;;;;;;0.70;0.57;;;6.60;99.90;;;;;;4994163;28;20550;-90
2022/03/13 06:01:27;;;;;;;0.82;0.82;;;6.50;99.90;;;;;;5026625;28;20064;-89
2022/03/13 06:03:53;;;;;;;6.15;3.45;;;6.40;99.90;;;;;;5010373;28;20045;-90
2022/03/13 06:06:20;;;;;;;2.33;1.40;;;7.00;99.90;;;;;;4995110;28;20406;-91
2022/03/13 06:08:46;;;;;;;0.98;0.93;;;6.50;99.90;;;;;;5010008;28;20083;-91
2022/03/13 06:11:12;;;;;;;0.30;0.30;;;6.40;99.90;;;;;;5009877;28;20037;-91
2022/03/13 06:13:38;;;;;;;3.22;1.48;;;7.20;99.90;;;;;;5010706;28;20142;-90
2022/03/13 06:16:04;;;;;;;2.05;1.65;;;6.90;99.90;;;;;;5010395;28;20033;-91
2022/03/13 06:18:33;;;;;;;3.03;1.50;;;6.50;99.90;;;;;;5010718;28;20097;-91
2022/03/13 06:21:01;;;;;;;0.95;0.80;;;6.50;99.90;;;;;;4995194;28;20045;-91
2022/03/13 06:23:29;;;;;;;4.53;2.63;;;6.50;99.90;;;;;;5010674;28;20514;-90
2022/03/13 06:26:00;;;;;;;0.50;0.50;;;6.50;99.90;;;;;;5010525;28;20383;-90
2022/03/13 06:28:26;;;;;;;4.95;1.75;;;6.50;99.90;;;;;;5010452;28;20045;-90
2022/03/13 06:30:55;;;;;;;0.88;0.75;;;6.50;99.90;;;;;;5010433;28;20037;-89
2022/03/13 06:33:21;;;;;;;1.05;0.88;;;6.50;99.90;;;;;;5010268;28;20426;-90
2022/03/13 06:35:46;;;;;;;1.13;0.85;;;6.50;99.90;;;;;;5010399;28;20048;-91
2022/03/13 06:38:13;;;;;;;0.82;0.73;;;6.40;99.90;;;;;;5010341;28;20102;-89
2022/03/13 06:40:39;;;;;;;0.65;0.65;;;6.40;99.90;;;;;;4990310;28;20038;-90
2022/03/13 06:43:06;;;;;;;2.03;1.83;;;6.40;99.90;;;;;;5006857;28;20044;-90
2022/03/13 06:45:32;;;;;;;1.95;1.27;;;6.40;99.90;;;;;;4997487;28;20064;-90
2022/03/13 06:47:58;;;;;;;3.40;0.60;;;6.50;99.90;;;;;;5009870;28;20053;-90
2022/03/13 06:50:23;;;;;;;0.77;0.77;;;6.50;99.90;;;;;;5010052;28;20045;-90
2022/03/13 06:52:52;;;;;;;2.30;1.25;;;7.20;99.90;;;;;;5009580;28;20478;-90
2022/03/13 06:55:19;;;;;;;0.43;0.43;;;6.60;99.90;;;;;;5009885;28;20064;-90
2022/03/13 06:57:45;;;;;;;0.28;0.28;;;6.50;99.90;;;;;;5009237;28;20048;-89
2022/03/13 07:00:14;;;;;;;3.40;2.65;;;6.60;99.90;;;;;;5009907;28;20037;-90
2022/03/13 07:02:39;;;;;;;1.55;1.30;;;6.60;99.90;;;;;;5009417;28;20458;-90
2022/03/13 07:05:07;;;;;;;0.30;0.30;;;6.60;99.90;;;;;;5009566;28;20069;-90
2022/03/13 07:07:33;;;;;;;0.77;0.75;;;6.70;99.90;;;;;;5009215;28;20044;-89
2022/03/13 07:09:58;;;;;;;1.40;1.00;;;6.50;99.90;;;;;;5009096;28;20418;-90
2022/03/13 07:12:25;;;;;;;0.20;0.20;;;7.60;99.90;;;;;;5009360;28;20044;-90
2022/03/13 07:14:52;;;;;;;1.30;1.20;;;6.80;99.90;;;;;;5009153;28;20040;-90
2022/03/13 07:17:18;;;;;;;1.15;1.05;;;6.80;99.90;;;;;;5009490;28;20064;-90
2022/03/13 07:19:45;;;;;;;1.10;0.80;;;6.90;99.90;;;;;;5009422;28;20033;-90
2022/03/13 07:22:12;;;;;;;0.52;0.52;;;8.10;99.90;;;;;;5009133;28;20471;-89
2022/03/13 07:24:38;;;;;;;1.10;0.93;;;6.50;99.90;;;;;;5009142;28;20475;-90
2022/03/13 07:27:03;;;;;;;1.05;0.57;;;6.90;99.90;;;;;;5008310;28;20041;-90
2022/03/13 07:29:29;;;;;;;3.03;1.95;;;7.30;99.90;;;;;;5008015;28;20047;-90
2022/03/13 07:31:56;;;;;;;0.85;0.85;;;7.00;99.90;;;;;;5008070;28;20101;-90
2022/03/13 07:34:27;;;;;;;5.97;2.05;;;6.60;99.90;;;;;;5008209;28;20044;-90
2022/03/13 07:36:54;;;;;;;0.40;0.40;;;7.10;99.90;;;;;;5008212;28;20040;-90
2022/03/13 07:39:21;;;;;;;1.38;0.70;;;7.20;99.90;;;;;;5008400;28;20406;-90
2022/03/13 07:41:47;;;;;;;0.22;0.22;;;7.20;99.90;;;;;;5008246;28;20464;-89
2022/03/13 07:44:13;;;;;;;0.98;0.70;;;8.10;99.90;;;;;;5008275;28;20041;-90
2022/03/13 07:46:53;;;;;;;1.40;1.30;;;7.40;99.90;;;;;;5008139;28;20041;-90
2022/03/13 07:49:18;;;;;;;0.45;0.40;;;7.50;99.90;;;;;;5008136;28;20045;-90
2022/03/13 07:51:44;;;;;;;1.60;1.33;;;7.50;99.90;;;;;;5008045;28;20037;-90
2022/03/13 07:54:10;;;;;;;0.45;0.45;;;7.60;99.90;;;;;;5008383;28;20069;-90
2022/03/13 07:56:39;;;;;;;0.30;0.30;;;7.70;99.90;;;;;;5024664;28;20116;-89
2022/03/13 07:59:05;;;;;;;1.05;0.77;;;7.70;99.90;;;;;;5023732;28;20077;-90
2022/03/13 08:01:30;;;;;;;4.35;2.40;;;7.90;99.90;;;;;;5007473;28;20052;-90
2022/03/13 08:03:56;;;;;;;1.52;0.90;;;8.00;99.90;;;;;;5007222;28;20045;-89
2022/03/13 08:06:23;;;;;;;0.40;0.40;;;8.10;99.90;;;;;;5007075;28;20060;-89
2022/03/13 08:08:49;;;;;;;0.40;0.40;;;8.20;99.90;;;;;;5006671;28;20037;-90
2022/03/13 08:11:15;;;;;;;0.95;0.85;;;8.30;99.90;;;;;;5007065;28;20037;-90
2022/03/13 08:13:41;;;;;;;0.93;0.77;;;8.30;99.90;;;;;;5007295;28;20034;-89
2022/03/13 08:16:06;;;;;;;0.80;0.75;;;8.40;99.90;;;;;;5007072;28;20041;-89
2022/03/13 08:18:34;;;;;;;0.88;0.82;;;8.50;99.90;;;;;;5007421;28;20038;-90
2022/03/13 08:21:00;;;;;;;0.52;0.52;;;8.60;99.90;;;;;;5008285;28;20066;-90
2022/03/13 08:23:25;;;;;;;2.28;1.42;;;8.70;99.90;;;;;;5007892;28;20067;-90
2022/03/13 08:25:51;;;;;;;4.25;2.30;;;9.50;99.90;;;;;;5008139;28;20044;-90
2022/03/13 08:28:16;;;;;;;9.27;2.08;;;9.00;99.90;;;;;;5008202;28;20037;-90
2022/03/13 08:30:42;;;;;;;1.83;1.17;;;9.20;99.90;;;;;;5007680;28;20129;-90
2022/03/13 08:33:08;;;;;;;2.30;1.52;;;9.40;99.90;;;;;;5007063;28;20047;-90
2022/03/13 08:35:34;;;;;;;5.47;2.90;;;9.50;99.90;;;;;;5006730;28;20037;-90
2022/03/13 08:37:59;;;;;;;1.00;0.90;;;11.10;99.90;;;;;;5007371;28;20080;-90
2022/03/13 08:40:25;;;;;;;0.68;0.65;;;9.80;99.90;;;;;;5007260;28;20041;-90
2022/03/13 08:42:52;;;;;;;1.67;1.25;;;10.20;99.90;;;;;;5007015;28;20041;-91
2022/03/13 08:45:18;;;;;;;4.53;2.55;;;10.10;99.90;;;;;;5006541;28;20056;-90
2022/03/13 08:47:43;;;;;;;1.15;1.02;;;10.60;99.90;;;;;;5007506;28;20081;-90
2022/03/13 08:50:10;;;;;;;0.85;0.57;;;10.20;99.90;;;;;;5006821;28;20038;-90
2022/03/13 08:52:35;;;;;;;2.67;1.60;;;10.90;99.90;;;;;;5007026;28;20029;-91
2022/03/13 08:55:05;;;;;;;0.85;0.80;;;10.40;99.90;;;;;;5006769;28;20044;-90
2022/03/13 08:57:31;;;;;;;1.98;1.30;;;10.40;99.90;;;;;;5006437;28;20094;-91
2022/03/13 08:59:56;;;;;;;2.53;1.45;;;11.20;99.90;;;;;;5006898;28;20522;-90
2022/03/13 09:02:29;;;;;;;0.82;0.55;;;11.00;99.90;;;;;;4999744;28;20042;-91
2022/03/13 09:04:55;;;;;;;3.20;2.08;;;11.10;99.90;;;;;;5021873;28;20036;-90
2022/03/13 09:07:20;;;;;;;2.03;1.75;;;10.80;99.90;;;;;;5026191;28;20479;-90
2022/03/13 09:09:46;;;;;;;0.70;0.70;;;11.10;99.90;;;;;;5024242;28;20102;-90
2022/03/13 09:12:12;;;;;;;1.13;0.85;;;11.00;99.90;;;;;;5019775;28;20478;-90
2022/03/13 09:14:39;;;;;;;1.95;0.88;;;11.10;99.80;;;;;;5043061;28;20077;-90
2022/03/13 09:17:05;;;;;;;0.55;0.50;;;11.10;99.90;;;;;;5042920;28;20186;-89
2022/03/13 09:19:30;;;;;;;0.63;0.60;;;11.30;99.90;;;;;;5012264;28;20069;-90
2022/03/13 09:21:56;;;;;;;1.45;1.35;;;11.40;99.90;;;;;;5026773;28;20048;-90
2022/03/13 09:24:22;;;;;;;7.03;3.70;;;11.40;99.90;;;;;;5018598;28;20037;-90
2022/03/13 09:26:47;;;;;;;3.17;1.42;;;10.80;98.80;;;;;;5011945;28;20241;-90
2022/03/13 09:29:14;;;;;;;5.32;2.60;;;11.40;98.20;;;;;;5026639;28;20033;-91
2022/03/13 09:31:40;;;;;;;0.30;0.30;;;12.30;98.30;;;;;;5013720;28;20148;-90
2022/03/13 09:34:05;;;;;;;1.50;0.90;;;11.50;97.20;;;;;;5010064;28;20046;-89
2022/03/13 09:36:36;;;;;;;0.43;0.43;;;11.50;97.90;;;;;;5011033;28;20514;-90
2022/03/13 09:39:03;;;;;;;4.82;2.70;;;11.60;97.00;;;;;;5002400;28;20100;-89
2022/03/13 09:41:28;;;;;;;0.68;0.68;;;11.60;97.40;;;;;;5011134;28;20048;-89
2022/03/13 09:43:54;;;;;;;1.38;0.60;;;11.70;97.20;;;;;;5007772;28;20490;-90
2022/03/13 09:46:20;;;;;;;1.45;0.90;;;11.80;97.70;;;;;;5025826;28;20080;-89
2022/03/13 09:48:52;;;;;;;9.13;7.07;;;11.80;96.10;;;;;;5005926;28;20081;-89
2022/03/13 09:51:17;;;;;;;2.00;1.23;;;11.90;95.60;;;;;;5033604;28;20108;-87
2022/03/13 09:53:43;;;;;;;3.55;2.80;;;11.90;94.30;;;;;;5021891;28;20131;-90
2022/03/13 09:56:09;;;;;;;2.30;1.50;;;12.00;94.80;;;;;;5051505;28;20057;-89
2022/03/13 09:58:41;;;;;;;4.57;2.95;;;12.40;94.40;;;;;;5006683;28;20087;-90
2022/03/13 10:01:07;;;;;;;1.05;0.90;;;12.20;95.60;;;;;;5026485;28;20418;-90
2022/03/13 10:03:33;;;;;;;1.13;0.90;;;12.30;94.50;;;;;;5029745;28;20048;-91
2022/03/13 10:06:00;;;;;;;2.38;1.38;;;12.50;94.20;;;;;;5023645;28;20101;-90
2022/03/13 10:08:31;;;;;;;0.82;0.75;;;12.40;94.30;;;;;;5066104;28;20037;-90
2022/03/13 10:10:57;;;;;;;1.60;1.40;;;13.80;94.70;;;;;;5035751;28;20072;-91
2022/03/13 10:13:35;;;;;;;4.22;1.92;;;12.50;93.70;;;;;;5019770;28;20033;-90
2022/03/13 10:16:02;;;;;;;6.40;3.67;;;12.60;93.40;;;;;;5021241;28;20034;-91
2022/03/13 10:18:27;;;;;;;2.13;0.93;;;12.70;95.60;;;;;;5054509;28;20040;-90
2022/03/13 10:20:54;;;;;;;1.05;0.95;;;12.40;92.90;;;;;;5058688;28;20613;-90
2022/03/13 10:23:22;;;;;;;1.77;1.38;;;12.90;94.20;;;;;;5050562;28;20042;-88
2022/03/13 10:25:52;;;;;;;2.60;1.17;;;12.70;93.90;;;;;;5030889;28;20044;-90
2022/03/13 10:28:30;;;;;;;3.50;2.80;;;13.00;93.40;;;;;;5050951;28;20096;-90
2022/03/13 10:31:02;;;;;;;2.35;1.63;;;13.20;95.20;;;;;;5048951;28;20037;-91
2022/03/13 10:33:45;;;;;;;14.80;2.05;;;13.40;94.90;;;;;;5061366;28;20044;-91
2022/03/13 10:36:16;;;;;;;1.35;0.75;;;13.30;93.50;;;;;;5061283;28;20033;-91
2022/03/13 10:38:43;;;;;;;3.70;2.28;;;13.40;94.30;;;;;;5032553;28;20041;-91
2022/03/13 10:41:09;;;;;;;1.92;1.23;;;13.40;95.00;;;;;;5030223;28;20084;-90
2022/03/13 10:43:46;;;;;;;2.75;1.48;;;13.50;94.70;;;;;;5027742;28;20066;-90
2022/03/13 10:46:23;;;;;;;4.82;3.03;;;13.50;93.80;;;;;;5028112;28;20036;-91
2022/03/13 10:48:49;;;;;;;0.68;0.68;;;14.20;94.00;;;;;;5030159;28;20118;-91
2022/03/13 10:51:18;;;;;;;1.65;1.27;;;13.60;92.90;;;;;;5030960;28;20033;-90
2022/03/13 10:53:44;;;;;;;1.65;1.10;;;13.60;93.00;;;;;;5051970;28;20120;-91
2022/03/13 10:56:11;;;;;;;4.30;1.80;;;14.40;93.90;;;;;;5027138;28;20064;-90
2022/03/13 10:58:39;;;;;;;1.88;1.05;;;13.70;94.40;;;;;;5030516;28;20132;-91
2022/03/13 11:01:10;;;;;;;1.50;0.82;;;13.60;93.10;;;;;;5031274;28;20047;-89
2022/03/13 11:03:46;;;;;;;6.05;3.70;;;13.50;93.20;;;;;;5029746;28;20049;-91
2022/03/13 11:06:12;;;;;;;8.13;2.15;;;13.40;93.70;;;;;;5045746;28;20049;-90
2022/03/13 11:08:41;;;;;;;0.25;0.25;;;13.40;94.30;;;;;;5025077;28;20050;-91
2022/03/13 11:11:08;;;;;;;2.72;1.35;;;13.40;93.50;;;;;;5022804;28;20079;-91
2022/03/13 11:13:34;;;;;;;0.50;0.45;;;13.30;94.50;;;;;;5028860;28;20030;-90
2022/03/13 11:16:00;;;;;;;1.08;0.95;;;15.20;94.50;;;;;;5046705;28;20096;-89
2022/03/13 11:18:36;;;;;;;8.18;1.30;;;14.10;93.10;;;;;;5031391;28;20056;-91
2022/03/13 11:21:08;;;;;;;4.90;4.18;;;14.40;93.80;;;;;;5069414;28;20033;-91
2022/03/13 11:23:36;;;;;;;0.38;0.38;;;14.90;94.00;;;;;;5038818;28;20041;-90
2022/03/13 11:26:07;;;;;;;4.55;3.45;;;14.40;92.50;;;;;;5032479;28;20041;-91
2022/03/13 11:28:58;;;;;;;2.80;1.63;;;14.60;93.20;;;;;;5028412;28;20148;-91
2022/03/13 11:31:34;;;;;;;0.40;0.30;;;14.50;91.60;;;;;;5051407;28;20041;-91
2022/03/13 11:34:14;;;;;;;2.72;1.65;;;14.70;92.10;;;;;;5056365;28;20123;-90
2022/03/13 11:36:42;;;;;;;5.07;4.60;;;14.80;92.40;;;;;;5041792;28;20077;-91
2022/03/13 11:39:09;;;;;;;2.15;1.75;;;14.70;91.50;;;;;;5050426;28;20080;-91
2022/03/13 11:41:44;;;;;;;1.85;1.20;;;14.60;92.30;;;;;;5067596;28;20040;-91
2022/03/13 11:44:22;;;;;;;2.55;1.08;;;14.70;92.70;;;;;;5038320;28;20073;-90
2022/03/13 11:46:49;;;;;;;11.32;4.03;;;14.70;93.00;;;;;;5069626;28;20045;-90
2022/03/13 11:49:44;;;;;;;0.93;0.88;;;14.70;91.00;;;;;;5055787;28;20048;-89
2022/03/13 11:52:09;;;;;;;0.38;0.30;;;14.60;90.80;;;;;;5045488;28;20033;-90
2022/03/13 11:54:53;;;;;;;0.55;0.50;;;14.60;91.10;;;;;;5045891;28;20044;-90
2022/03/13 11:57:21;;;;;;;10.93;4.63;;;14.60;91.90;;;;;;5029400;28;20048;-90
2022/03/13 12:00:10;;;;;;;0.35;0.35;;;14.60;92.50;;;;;;5013585;28;20135;-91
2022/03/13 12:02:43;;;;;;;0.52;0.50;;;14.60;91.60;;;;;;5048197;28;20042;-90
2022/03/13 12:05:30;;;;;;;2.08;1.58;;;15.00;92.30;;;;;;5066830;28;20044;-91
2022/03/13 12:08:12;;;;;;;4.43;1.80;;;14.90;93.10;;;;;;5020429;28;20053;-90
2022/03/13 12:10:42;;;;;;;0.32;0.30;;;15.10;92.80;;;;;;5032003;28;20051;-91
2022/03/13 12:13:10;;;;;;;4.70;2.08;;;15.00;91.90;;;;;;5026105;28;20180;-90
2022/03/13 12:15:37;;;;;;;1.27;1.10;;;15.00;91.60;;;;;;5024624;28;20029;-91
2022/03/13 12:18:17;;;;;;;2.65;1.48;;;15.00;92.10;;;;;;5025181;28;20041;-90
2022/03/13 12:20:45;;;;;;;3.30;2.15;;;15.20;91.70;;;;;;5030580;28;20044;-91
2022/03/13 12:23:33;;;;;;;3.85;2.33;;;15.50;91.50;;;;;;5044628;28;20060;-91
2022/03/13 12:26:33;;;;;;;3.42;1.77;;;15.30;92.40;;;;;;5023724;28;20056;-91
2022/03/13 12:28:59;;;;;;;6.85;4.35;;;15.30;91.80;;;;;;5043964;28;20092;-91
2022/03/13 12:31:26;;;;;;;0.70;0.70;;;15.20;91.30;;;;;;5057445;28;20030;-90
2022/03/13 12:33:54;;;;;;;3.33;1.70;;;15.30;92.00;;;;;;5025476;28;20110;-90
2022/03/13 12:36:35;;;;;;;2.13;1.42;;;15.30;91.10;;;;;;5035358;28;20029;-91
2022/03/13 12:39:02;;;;;;;3.55;1.92;;;15.40;91.50;;;;;;5052729;28;20169;-91
2022/03/13 12:41:29;;;;;;;3.33;1.95;;;15.50;91.30;;;;;;5019950;28;20052;-92
2022/03/13 12:44:01;;;;;;;2.50;1.70;;;15.50;92.40;;;;;;5055640;28;20128;-89
2022/03/13 12:46:29;;;;;;;2.72;1.55;;;15.50;91.50;;;;;;5024545;28;20049;-91
2022/03/13 12:48:58;;;;;;;1.02;0.60;;;15.50;91.90;;;;;;5024452;28;20041;-89
2022/03/13 12:51:35;;;;;;;1.83;1.25;;;15.90;92.00;;;;;;5024036;28;20037;-91
2022/03/13 12:54:07;;;;;;;1.75;1.27;;;15.70;91.30;;;;;;5050900;28;20041;-90
2022/03/13 12:56:51;;;;;;;1.17;0.77;;;15.70;91.00;;;;;;5012699;28;20080;-91
2022/03/13 12:59:40;;;;;;;2.05;1.17;;;15.80;90.50;;;;;;5021967;28;20045;-90